Disclaimer

Please do not use the information listed here in-flight or in-navigation, as they are not provided to us by the airports but are provided by volunteers, so they might be outdated.

Search


Regions


Airport information page

No radio frequency information is available.

Airport informations:
Latitude: 64° 32' 53.96" N
Longitude: 018° 42' 58.39" E
Elevation: 705 feet - 215 meters
Operating hours: Remarks
Operating agency: Civil government, landing fees and diplomatic clearance may be required
Timezone: UTC+1(+2DT) - Last Sunday in March to last Sunday in October
Fuel: Jet A, without icing inhibitor.

100/130 MIL Spec, low lead, aviation gasoline (BLUE)

Runway information:
14/32 - 6564 x 98 feet< - >2001 x 30 meters

Recent METARs:
ESNL 181920Z AUTO 00000KT 9999 NCD M08/M10 Q1043
ESNL 181950Z AUTO 00000KT 8000 BR NCD M08/M10 Q1042
ESNL 182020Z AUTO 00000KT 9999 VV001 M09/M10 Q1042

Airport on the map: